Time;durP1;ratioP1;P1;durP2;ratioP2;P2;SDS_P1;SDS_P2;PMS_P1;PMS_P2;Temp;Humidity;BMP_temperature;BMP_pressure;BME280_temperature;BME280_humidity;BME280_pressure;Samples;Min_cycle;Max_cycle;Signal;HPM_P1;HPM_P2
2023/04/05 00:00:14;;;;;;;4.80;3.47;;;;;;;4.13;99.79;100229.14;1738426;82;21438;-70
2023/04/05 00:02:45;;;;;;;5.67;3.80;;;;;;;4.13;99.83;100223.21;1738377;82;21406;-71
2023/04/05 00:05:28;;;;;;;5.45;3.67;;;;;;;4.10;99.84;100213.19;1738419;82;21033;-70
2023/04/05 00:07:46;;;;;;;5.58;3.75;;;;;;;4.11;99.97;100221.17;1736587;82;21438;-71
2023/04/05 00:10:16;;;;;;;4.95;3.83;;;;;;;4.11;100.00;100229.80;1738304;82;21108;-72
2023/04/05 00:12:45;;;;;;;6.55;3.85;;;;;;;4.10;99.93;100215.91;1738446;82;21025;-71
2023/04/05 00:15:15;;;;;;;4.65;3.67;;;;;;;4.11;100.00;100206.76;1738294;82;21469;-70
2023/04/05 00:17:46;;;;;;;5.00;3.90;;;;;;;4.09;100.00;100199.30;1738413;82;21049;-70
2023/04/05 00:20:15;;;;;;;6.67;3.70;;;;;;;4.11;100.00;100202.19;1738236;82;21068;-70
2023/04/05 00:22:45;;;;;;;5.78;3.80;;;;;;;4.13;100.00;100206.95;1738325;82;21034;-68
2023/04/05 00:25:15;;;;;;;4.90;3.50;;;;;;;4.13;100.00;100199.31;1738107;82;21017;-69
2023/04/05 00:27:44;;;;;;;5.40;3.47;;;;;;;4.09;100.00;100196.58;1738230;82;21092;-70
2023/04/05 00:30:19;;;;;;;5.12;3.60;;;;;;;4.07;100.00;100198.09;1738335;82;21057;-69
2023/04/05 00:32:49;;;;;;;5.10;3.35;;;;;;;4.07;100.00;100206.73;1738199;82;21120;-68
2023/04/05 00:35:20;;;;;;;4.15;3.27;;;;;;;4.07;100.00;100207.59;1738187;82;21243;-69
2023/04/05 00:37:49;;;;;;;5.20;3.27;;;;;;;4.04;100.00;100203.84;1738315;82;21033;-72
2023/04/05 00:40:18;;;;;;;4.75;3.40;;;;;;;4.03;100.00;100196.72;1738647;82;21474;-68
2023/04/05 00:42:47;;;;;;;4.17;3.12;;;;;;;4.03;100.00;100195.88;1738452;82;21029;-69
2023/04/05 00:45:17;;;;;;;4.62;2.92;;;;;;;4.00;100.00;100182.13;1738064;82;21457;-68
2023/04/05 00:47:47;;;;;;;4.47;3.15;;;;;;;3.99;100.00;100176.36;1738421;82;21493;-67
2023/04/05 00:50:16;;;;;;;3.85;2.95;;;;;;;4.01;100.00;100176.20;1738327;82;21064;-67
2023/04/05 00:52:47;;;;;;;4.08;2.90;;;;;;;3.99;100.00;100158.75;1738710;82;21032;-68
2023/04/05 00:55:18;;;;;;;3.95;3.15;;;;;;;4.01;100.00;100159.94;1740469;82;21076;-66
2023/04/05 00:57:48;;;;;;;3.33;2.67;;;;;;;4.02;100.00;100161.13;1740521;82;20982;-69
2023/04/05 01:00:19;;;;;;;3.58;2.60;;;;;;;4.02;100.00;100159.78;1742618;82;20954;-68
2023/04/05 01:03:00;;;;;;;3.70;2.70;;;;;;;4.04;100.00;100152.84;1721319;82;21066;-69
2023/04/05 01:05:47;;;;;;;3.15;2.52;;;;;;;4.01;100.00;100151.30;1741735;82;21457;-67
2023/04/05 01:08:34;;;;;;;4.03;2.40;;;;;;;4.01;100.00;100150.45;1719762;82;21034;-68
2023/04/05 01:11:05;;;;;;;2.92;2.40;;;;;;;4.01;100.00;100151.81;1739031;82;21089;-67
2023/04/05 01:13:36;;;;;;;3.50;2.55;;;;;;;3.99;100.00;100150.62;1738748;82;21029;-67
2023/04/05 01:16:05;;;;;;;3.02;2.02;;;;;;;3.99;100.00;100151.97;1738476;82;21025;-68
2023/04/05 01:18:36;;;;;;;4.28;2.70;;;;;;;4.00;100.00;100153.67;1738688;82;21034;-66
2023/04/05 01:21:19;;;;;;;3.00;2.17;;;;;;;3.99;100.00;100154.68;1738282;82;21088;-68
2023/04/05 01:24:31;;;;;;;2.85;2.47;;;;;;;3.98;100.00;100154.34;1738511;82;21021;-69
2023/04/05 01:27:18;;;;;;;3.42;2.55;;;;;;;3.97;100.00;100150.43;1738668;82;21032;-71
2023/04/05 01:30:02;;;;;;;3.17;2.30;;;;;;;3.97;100.00;100149.08;1738587;82;21005;-70
2023/04/05 01:32:41;;;;;;;2.90;2.60;;;;;;;3.97;100.00;100140.44;1732719;82;21069;-69
2023/04/05 01:35:33;;;;;;;3.25;2.42;;;;;;;3.98;100.00;100145.36;1739226;82;21458;-66
2023/04/05 01:38:04;;;;;;;3.35;2.30;;;;;;;3.96;100.00;100146.88;1754237;82;21017;-67
2023/04/05 01:40:36;;;;;;;3.15;2.10;;;;;;;3.94;100.00;100135.84;1754323;82;21075;-68
2023/04/05 01:43:15;;;;;;;3.37;2.27;;;;;;;3.93;100.00;100144.98;1740151;82;21021;-67
2023/04/05 01:45:45;;;;;;;2.90;2.33;;;;;;;3.92;100.00;100152.27;1741022;81;21453;-69
2023/04/05 01:48:14;;;;;;;2.92;2.15;;;;;;;3.89;100.00;100142.23;1741412;82;21029;-69
2023/04/05 01:50:43;;;;;;;3.85;2.60;;;;;;;3.89;100.00;100135.45;1741235;82;21615;-67
2023/04/05 01:53:14;;;;;;;2.35;1.90;;;;;;;3.93;100.00;100126.02;1741094;82;21021;-69
2023/04/05 01:55:44;;;;;;;2.87;2.05;;;;;;;3.92;100.00;100127.88;1740902;82;21488;-68
2023/04/05 01:58:14;;;;;;;2.92;2.20;;;;;;;3.92;100.00;100117.55;1740820;81;21024;-69
2023/04/05 02:00:44;;;;;;;3.47;2.47;;;;;;;3.91;100.00;100111.78;1741162;82;21020;-68
2023/04/05 02:03:14;;;;;;;3.10;2.37;;;;;;;3.91;100.00;100112.63;1741080;82;21502;-67
2023/04/05 02:05:44;;;;;;;4.37;2.40;;;;;;;3.89;100.00;100106.48;1741306;82;21033;-67
2023/04/05 02:08:15;;;;;;;2.80;2.12;;;;;;;3.89;100.00;100097.00;1740961;82;21049;-66
2023/04/05 02:10:44;;;;;;;3.20;2.45;;;;;;;3.88;100.00;100098.02;1741083;82;21531;-67
2023/04/05 02:13:16;;;;;;;2.90;2.20;;;;;;;3.87;100.00;100094.96;1740793;82;21053;-67
2023/04/05 02:15:49;;;;;;;2.87;2.22;;;;;;;3.86;100.00;100086.48;1741121;82;21049;-68
2023/04/05 02:18:30;;;;;;;3.00;2.15;;;;;;;3.86;100.00;100082.42;1741060;82;21033;-67
2023/04/05 02:20:52;;;;;;;2.65;1.90;;;;;;;3.82;100.00;100081.89;1740498;82;21045;-65
2023/04/05 02:23:22;;;;;;;3.60;2.20;;;;;;;3.83;100.00;100080.88;1740908;82;21073;-66
2023/04/05 02:25:52;;;;;;;3.15;2.17;;;;;;;3.83;100.00;100082.75;1741037;82;20986;-65
2023/04/05 02:28:21;;;;;;;2.98;2.22;;;;;;;3.82;100.00;100079.70;1741221;82;21060;-64
2023/04/05 02:30:52;;;;;;;3.12;2.20;;;;;;;3.80;100.00;100093.91;1741361;82;21053;-66
2023/04/05 02:33:22;;;;;;;2.42;2.10;;;;;;;3.81;100.00;100092.90;1738334;82;21787;-64
2023/04/05 02:35:52;;;;;;;2.75;1.95;;;;;;;3.80;100.00;100086.62;1738535;82;21937;-66
2023/04/05 02:38:22;;;;;;;3.08;2.22;;;;;;;3.82;100.00;100085.11;1746505;82;21029;-67
2023/04/05 02:40:52;;;;;;;2.62;2.10;;;;;;;3.80;100.00;100084.42;1746664;82;21021;-70
2023/04/05 02:43:21;;;;;;;3.00;2.17;;;;;;;3.81;100.00;100091.55;1741715;82;21069;-69
2023/04/05 02:45:51;;;;;;;2.70;1.90;;;;;;;3.83;100.00;100081.39;1738718;82;21065;-67
2023/04/05 02:48:20;;;;;;;2.33;1.82;;;;;;;3.83;100.00;100085.45;1738474;82;21084;-67
2023/04/05 02:50:50;;;;;;;3.12;2.30;;;;;;;3.81;100.00;100079.34;1717958;82;21049;-66
2023/04/05 02:53:21;;;;;;;2.67;2.10;;;;;;;3.78;100.00;100082.38;1738519;82;21341;-65
2023/04/05 02:55:56;;;;;;;3.02;2.22;;;;;;;3.78;100.00;100079.67;1738122;82;21033;-66
2023/04/05 02:58:27;;;;;;;2.75;2.15;;;;;;;3.79;100.00;100086.79;1650803;84;21491;-68
2023/04/05 03:00:56;;;;;;;2.30;1.70;;;;;;;3.83;100.00;100086.81;1647073;87;21076;-67
2023/04/05 03:03:28;;;;;;;2.95;2.08;;;;;;;3.82;100.00;100090.53;1646945;87;21460;-67
2023/04/05 03:06:08;;;;;;;2.65;1.95;;;;;;;3.80;100.00;100084.42;1647165;87;21039;-67
2023/04/05 03:08:46;;;;;;;2.20;1.60;;;;;;;3.81;100.00;100085.62;1647141;86;21043;-68
2023/04/05 03:11:16;;;;;;;2.85;1.90;;;;;;;3.82;100.00;100079.19;1647407;87;21056;-67
2023/04/05 03:13:47;;;;;;;2.20;1.80;;;;;;;3.81;100.00;100085.62;1647261;87;21133;-67
2023/04/05 03:16:19;;;;;;;3.30;2.10;;;;;;;3.81;100.00;100082.06;1676767;83;21057;-69
2023/04/05 03:18:51;;;;;;;2.50;1.80;;;;;;;3.78;100.00;100085.95;1731127;83;21046;-66
2023/04/05 03:21:22;;;;;;;2.35;1.90;;;;;;;3.79;100.00;100088.15;1730949;83;21005;-67
2023/04/05 03:23:56;;;;;;;1.80;1.60;;;;;;;3.77;100.00;100084.75;1730805;83;21148;-67
2023/04/05 03:26:27;;;;;;;3.52;1.70;;;;;;;3.76;100.00;100094.74;1731332;83;21044;-67
2023/04/05 03:28:56;;;;;;;3.45;2.05;;;;;;;3.77;100.00;100087.46;1731370;82;21030;-68
2023/04/05 03:31:29;;;;;;;2.12;1.67;;;;;;;3.76;100.00;100085.25;1731238;82;21018;-67
2023/04/05 03:34:00;;;;;;;2.40;1.90;;;;;;;3.79;100.00;100082.73;1713702;83;21030;-67
2023/04/05 03:36:41;;;;;;;1.92;1.62;;;;;;;3.79;100.00;100081.37;1716403;82;21117;-67
2023/04/05 03:39:12;;;;;;;1.77;1.42;;;;;;;3.81;100.00;100084.77;1735157;81;21434;-68
2023/04/05 03:41:41;;;;;;;2.50;1.90;;;;;;;3.81;100.00;100090.19;1720740;82;21427;-68
2023/04/05 03:44:10;;;;;;;2.72;1.60;;;;;;;3.82;100.00;100082.41;1713578;84;20998;-69
2023/04/05 03:46:39;;;;;;;3.70;2.27;;;;;;;3.81;100.00;100084.77;1713560;82;21018;-66
2023/04/05 03:49:08;;;;;;;1.67;1.35;;;;;;;3.83;100.00;100082.75;1730562;83;21092;-66
2023/04/05 03:51:38;;;;;;;1.82;1.30;;;;;;;3.86;100.00;100086.99;1736231;83;21485;-67
2023/04/05 03:54:07;;;;;;;1.95;1.45;;;;;;;3.85;100.00;100092.92;1736405;82;21065;-66
2023/04/05 03:56:37;;;;;;;1.75;1.30;;;;;;;3.85;100.00;100091.56;1735871;83;21057;-67
2023/04/05 03:59:09;;;;;;;2.02;1.52;;;;;;;3.85;100.00;100094.27;1735275;83;21037;-67
2023/04/05 04:01:41;;;;;;;1.75;1.35;;;;;;;3.84;100.00;100088.52;1735819;83;21021;-65
2023/04/05 04:04:12;;;;;;;1.47;1.30;;;;;;;3.84;100.00;100089.87;1735976;83;21055;-66
2023/04/05 04:06:42;;;;;;;2.20;1.70;;;;;;;3.88;100.00;100085.82;1735886;82;21038;-67
2023/04/05 04:09:11;;;;;;;2.62;1.50;;;;;;;3.89;100.00;100080.74;1735822;83;21010;-67
2023/04/05 04:11:43;;;;;;;1.95;1.35;;;;;;;3.93;100.00;100075.88;1736184;83;21445;-66
2023/04/05 04:14:17;;;;;;;2.30;1.45;;;;;;;3.91;100.00;100074.69;1736507;83;20985;-67
2023/04/05 04:17:03;;;;;;;2.45;1.47;;;;;;;3.91;100.00;100069.27;1734772;82;21511;-68
2023/04/05 04:19:32;;;;;;;2.00;1.42;;;;;;;3.94;100.00;100070.30;1735994;83;21029;-66
2023/04/05 04:22:08;;;;;;;1.75;1.42;;;;;;;3.93;100.00;100071.30;1736202;82;21073;-70
2023/04/05 04:24:48;;;;;;;2.85;1.42;;;;;;;3.94;100.00;100070.30;1733731;82;21026;-68
2023/04/05 04:27:19;;;;;;;2.12;1.40;;;;;;;3.94;100.00;100058.09;1705391;82;21756;-69
2023/04/05 04:30:11;;;;;;;2.12;1.50;;;;;;;3.95;100.00;100063.86;1736236;82;21698;-69
2023/04/05 04:32:50;;;;;;;3.08;1.72;;;;;;;3.98;100.00;100057.27;1736078;83;21734;-70
2023/04/05 04:35:37;;;;;;;1.90;1.60;;;;;;;4.00;100.00;100065.58;1736409;82;21045;-69
2023/04/05 04:38:26;;;;;;;2.00;1.25;;;;;;;4.02;100.00;100060.84;1740229;82;21057;-68
2023/04/05 04:41:10;;;;;;;2.05;1.30;;;;;;;4.03;100.00;100067.95;1736477;82;21021;-68
2023/04/05 04:43:47;;;;;;;2.40;1.50;;;;;;;4.02;100.00;100053.21;1739671;82;21001;-66
2023/04/05 04:46:25;;;;;;;2.70;1.57;;;;;;;4.04;100.00;100054.75;1708186;82;21057;-68
2023/04/05 04:49:04;;;;;;;2.12;1.40;;;;;;;4.05;100.00;100055.09;1736056;81;21080;-67
2023/04/05 04:51:39;;;;;;;1.85;1.50;;;;;;;4.09;100.00;100059.67;1736434;82;20993;-66
2023/04/05 04:54:08;;;;;;;4.58;1.75;;;;;;;4.09;100.00;100065.95;1736151;82;21511;-68
2023/04/05 04:56:37;;;;;;;2.02;1.40;;;;;;;4.11;100.00;100069.34;1735958;82;20997;-67
2023/04/05 04:59:06;;;;;;;3.00;2.30;;;;;;;4.16;100.00;100072.06;1733498;82;21510;-69
2023/04/05 05:01:39;;;;;;;2.05;1.50;;;;;;;4.16;100.00;100076.13;1733761;82;21120;-67
2023/04/05 05:04:11;;;;;;;4.72;3.60;;;;;;;4.17;100.00;100066.98;1735602;83;21050;-68
2023/04/05 05:06:42;;;;;;;2.30;1.60;;;;;;;4.19;100.00;100073.09;1736256;82;21065;-67
2023/04/05 05:09:11;;;;;;;2.62;1.87;;;;;;;4.18;100.00;100076.31;1736230;82;21025;-69
2023/04/05 05:11:43;;;;;;;4.20;1.35;;;;;;;4.18;100.00;100069.53;1729933;82;21054;-66
2023/04/05 05:14:14;;;;;;;2.60;1.40;;;;;;;4.21;100.00;100063.77;1736288;83;21013;-68
2023/04/05 05:16:44;;;;;;;1.30;1.05;;;;;;;4.25;100.00;100062.94;1736234;83;21065;-68
2023/04/05 05:19:13;;;;;;;2.65;1.40;;;;;;;4.26;100.00;100061.92;1735210;82;21025;-69
2023/04/05 05:21:45;;;;;;;2.20;1.37;;;;;;;4.25;100.00;100056.16;1735418;82;21296;-69
2023/04/05 05:24:15;;;;;;;1.27;1.12;;;;;;;4.27;100.00;100059.05;1733545;83;21705;-69
2023/04/05 05:26:44;;;;;;;2.10;1.30;;;;;;;4.32;100.00;100061.27;1736130;83;21247;-68
2023/04/05 05:29:14;;;;;;;2.05;1.35;;;;;;;4.33;100.00;100052.11;1735429;83;21492;-69
2023/04/05 05:31:45;;;;;;;2.50;1.25;;;;;;;4.36;100.00;100055.84;1735684;82;21025;-68
2023/04/05 05:34:14;;;;;;;2.45;1.40;;;;;;;4.36;100.00;100039.06;1738412;82;21547;-69
2023/04/05 05:36:45;;;;;;;2.10;1.57;;;;;;;4.38;100.00;100041.61;1737903;82;21094;-69
2023/04/05 05:39:14;;;;;;;2.65;1.55;;;;;;;4.37;100.00;100040.77;1738250;82;21523;-68
2023/04/05 05:41:44;;;;;;;2.45;1.60;;;;;;;4.38;100.00;100049.75;1738595;82;21556;-69
2023/04/05 05:44:13;;;;;;;2.15;1.50;;;;;;;4.36;100.00;100040.42;1738582;82;21029;-71
2023/04/05 05:46:43;;;;;;;3.17;1.45;;;;;;;4.39;100.00;100046.02;1738537;82;21465;-70
2023/04/05 05:49:12;;;;;;;2.40;1.65;;;;;;;4.40;100.00;100041.78;1738431;82;21520;-67
2023/04/05 05:51:41;;;;;;;2.02;1.20;;;;;;;4.43;100.00;100041.95;1738565;82;21052;-69
2023/04/05 05:54:10;;;;;;;4.05;1.70;;;;;;;4.44;100.00;100043.14;1738488;82;21049;-68
2023/04/05 05:56:39;;;;;;;4.10;1.60;;;;;;;4.43;100.00;100035.17;1738370;82;21052;-68
2023/04/05 05:59:10;;;;;;;2.12;1.50;;;;;;;4.41;100.00;100029.92;1738172;82;21057;-69
2023/04/05 06:01:41;;;;;;;3.47;1.72;;;;;;;4.40;100.00;100032.30;1738427;82;21028;-72
2023/04/05 06:04:11;;;;;;;2.52;1.30;;;;;;;4.42;100.00;100042.97;1738276;82;21056;-71
2023/04/05 06:06:45;;;;;;;1.90;1.20;;;;;;;4.42;100.00;100030.77;1738604;82;21041;-69
2023/04/05 06:09:15;;;;;;;1.82;1.35;;;;;;;4.41;100.00;100025.85;1701524;83;21035;-65
2023/04/05 06:11:46;;;;;;;2.92;1.50;;;;;;;4.41;100.00;100035.85;1701561;84;21451;-69
2023/04/05 06:14:16;;;;;;;5.03;1.67;;;;;;;4.39;100.00;100027.88;1701462;84;21051;-69
2023/04/05 06:16:45;;;;;;;3.27;1.52;;;;;;;4.40;100.00;100038.22;1701435;84;21587;-69
2023/04/05 06:19:14;;;;;;;1.90;1.35;;;;;;;4.41;100.00;100037.20;1701319;84;21111;-70
2023/04/05 06:21:43;;;;;;;1.50;1.10;;;;;;;4.43;100.00;100036.53;1701758;84;21082;-69
2023/04/05 06:24:13;;;;;;;1.80;1.10;;;;;;;4.41;100.00;100042.63;1701786;84;21036;-71
2023/04/05 06:26:45;;;;;;;3.37;1.75;;;;;;;4.41;100.00;100043.98;1708677;82;21029;-72
2023/04/05 06:29:16;;;;;;;1.55;1.20;;;;;;;4.43;100.00;100046.03;1738502;81;21021;-68
2023/04/05 06:31:47;;;;;;;2.20;1.30;;;;;;;4.42;100.00;100049.25;1738607;82;21029;-70
2023/04/05 06:34:16;;;;;;;2.90;1.60;;;;;;;4.42;100.00;100041.62;1736387;82;21041;-69
2023/04/05 06:36:46;;;;;;;1.55;1.20;;;;;;;4.42;100.00;100046.53;1736005;82;21453;-65
2023/04/05 06:39:16;;;;;;;1.85;1.22;;;;;;;4.43;100.00;100052.30;1736250;82;21049;-69
2023/04/05 06:41:45;;;;;;;1.95;1.37;;;;;;;4.41;100.00;100050.27;1736094;83;21611;-68
2023/04/05 06:44:15;;;;;;;8.00;1.40;;;;;;;4.39;100.00;100036.53;1735790;83;21029;-68
2023/04/05 06:46:44;;;;;;;3.85;1.80;;;;;;;4.39;100.00;100043.31;1736375;82;21113;-69
2023/04/05 06:49:12;;;;;;;3.05;1.70;;;;;;;4.39;100.00;100044.66;1735776;82;21033;-68
2023/04/05 06:51:41;;;;;;;2.40;1.70;;;;;;;4.40;100.00;100046.36;1736151;82;21462;-68
2023/04/05 06:54:12;;;;;;;2.50;1.55;;;;;;;4.42;100.00;100054.67;1735497;81;21045;-70
2023/04/05 06:56:42;;;;;;;3.25;2.20;;;;;;;4.44;100.00;100049.08;1736003;83;21033;-70
2023/04/05 06:59:11;;;;;;;3.50;2.30;;;;;;;4.42;100.00;100050.61;1735889;82;21108;-70
2023/04/05 07:01:42;;;;;;;2.80;1.90;;;;;;;4.39;100.00;100050.94;1736127;83;21469;-70
2023/04/05 07:04:13;;;;;;;3.83;2.25;;;;;;;4.39;100.00;100051.45;1736061;82;21970;-68
2023/04/05 07:06:42;;;;;;;4.30;2.52;;;;;;;4.37;100.00;100053.47;1736058;82;21067;-69
2023/04/05 07:09:13;;;;;;;5.65;2.50;;;;;;;4.36;100.00;100049.06;1735791;83;21029;-70
2023/04/05 07:11:42;;;;;;;3.12;2.25;;;;;;;4.35;100.00;100049.57;1736175;83;21446;-69
2023/04/05 07:14:11;;;;;;;3.55;2.17;;;;;;;4.37;100.00;100042.62;1736052;82;21503;-69
2023/04/05 07:16:41;;;;;;;3.92;2.25;;;;;;;4.39;100.00;100042.80;1736019;82;21088;-69
2023/04/05 07:19:11;;;;;;;3.98;1.87;;;;;;;4.39;100.00;100040.59;1735973;82;21053;-68
2023/04/05 07:21:41;;;;;;;4.50;2.45;;;;;;;4.38;100.00;100038.90;1736085;82;21033;-69
2023/04/05 07:24:12;;;;;;;4.05;2.37;;;;;;;4.38;100.00;100025.34;1736080;81;21018;-70
2023/04/05 07:26:42;;;;;;;3.45;1.87;;;;;;;4.39;100.00;100025.67;1736075;83;21457;-70
2023/04/05 07:29:12;;;;;;;3.60;1.92;;;;;;;4.40;100.00;100025.52;1736170;83;21010;-69
2023/04/05 07:31:41;;;;;;;3.10;2.02;;;;;;;4.44;100.00;100021.45;1736296;82;21140;-71
2023/04/05 07:34:15;;;;;;;2.52;1.77;;;;;;;4.46;100.00;100019.42;1737731;82;21057;-69
2023/04/05 07:36:45;;;;;;;2.70;1.90;;;;;;;4.48;100.00;100017.89;1738486;82;21078;-70
2023/04/05 07:39:17;;;;;;;3.35;1.98;;;;;;;4.49;100.00;100016.03;1684766;85;21019;-69
2023/04/05 07:41:46;;;;;;;2.92;1.85;;;;;;;4.50;100.00;100018.57;1684598;85;21476;-69
2023/04/05 07:44:17;;;;;;;2.87;2.00;;;;;;;4.54;100.00;100022.64;1684642;85;21011;-69
2023/04/05 07:46:48;;;;;;;3.37;2.02;;;;;;;4.59;100.00;100018.95;1684580;85;21055;-69
2023/04/05 07:49:17;;;;;;;2.58;2.10;;;;;;;4.62;100.00;100022.69;1684554;85;21059;-71
2023/04/05 07:51:48;;;;;;;3.42;2.27;;;;;;;4.64;100.00;100020.64;1684635;85;21083;-68
2023/04/05 07:54:17;;;;;;;3.67;2.47;;;;;;;4.65;100.00;100020.14;1677447;83;21551;-71
2023/04/05 07:56:48;;;;;;;2.62;1.92;;;;;;;4.69;100.00;100020.98;1713874;81;21044;-69
2023/04/05 07:59:18;;;;;;;4.92;2.22;;;;;;;4.71;100.00;100021.67;1732550;82;21026;-67
2023/04/05 08:01:47;;;;;;;3.22;2.17;;;;;;;4.73;100.00;100016.92;1739069;82;21816;-67
2023/04/05 08:04:22;;;;;;;3.60;2.50;;;;;;;4.76;100.00;100027.44;1743269;81;21024;-70
2023/04/05 08:07:01;;;;;;;3.58;2.72;;;;;;;4.80;100.00;100018.45;1732139;82;21064;-70
2023/04/05 08:09:30;;;;;;;3.45;1.92;;;;;;;4.88;100.00;100025.73;1731218;82;21104;-73
2023/04/05 08:12:01;;;;;;;4.12;2.47;;;;;;;4.92;100.00;100024.38;1742368;81;21033;-70
2023/04/05 08:14:31;;;;;;;4.33;2.60;;;;;;;4.93;100.00;100025.56;1743804;82;21510;-69
2023/04/05 08:17:02;;;;;;;3.87;2.47;;;;;;;4.95;100.00;100028.95;1744685;81;21051;-69
2023/04/05 08:19:31;;;;;;;3.15;1.90;;;;;;;4.96;100.00;100031.16;1743816;82;21072;-70
2023/04/05 08:22:00;;;;;;;6.80;2.10;;;;;;;4.98;100.00;100035.40;1745773;82;21011;-71
2023/04/05 08:24:30;;;;;;;3.20;1.65;;;;;;;4.99;100.00;100032.17;1743661;81;21320;-70
2023/04/05 08:26:59;;;;;;;9.13;2.85;;;;;;;5.01;100.00;100035.06;1742395;82;21059;-69
2023/04/05 08:29:30;;;;;;;3.58;2.37;;;;;;;5.02;100.00;100032.68;1742917;81;21452;-73
2023/04/05 08:31:59;;;;;;;4.67;2.20;;;;;;;5.05;100.00;100036.41;1742440;81;21021;-71
2023/04/05 08:34:29;;;;;;;4.78;1.77;;;;;;;5.05;100.00;100035.05;1739830;81;21131;-70
2023/04/05 08:36:58;;;;;;;2.33;1.77;;;;;;;5.07;100.00;100027.59;1735904;82;21012;-69
2023/04/05 08:39:28;;;;;;;4.08;2.12;;;;;;;5.09;100.00;100032.33;1737189;82;21016;-71
2023/04/05 08:42:13;;;;;;;2.95;1.70;;;;;;;5.10;100.00;100029.11;1741545;82;21083;-72
2023/04/05 08:44:42;;;;;;;2.87;2.00;;;;;;;5.11;100.00;100030.80;1746750;81;21464;-70
2023/04/05 08:47:14;;;;;;;3.42;2.20;;;;;;;5.11;100.00;100028.09;1746572;82;21460;-74
2023/04/05 08:49:43;;;;;;;3.67;2.12;;;;;;;5.14;100.00;100030.97;1745409;81;21449;-74
2023/04/05 08:52:12;;;;;;;2.62;1.90;;;;;;;5.16;100.00;100033.85;1741853;82;21025;-71
2023/04/05 08:54:41;;;;;;;2.27;1.60;;;;;;;5.18;100.00;100030.45;1738408;82;21014;-71
2023/04/05 08:57:10;;;;;;;3.17;2.00;;;;;;;5.19;100.00;100033.51;1738407;82;21101;-72
2023/04/05 08:59:39;;;;;;;3.70;2.47;;;;;;;5.21;100.00;100036.94;1738523;82;21037;-69
2023/04/05 09:02:17;;;;;;;2.85;1.90;;;;;;;5.23;100.00;100036.25;1730468;81;21040;-76
2023/04/05 09:04:47;;;;;;;2.98;1.90;;;;;;;5.24;100.00;100028.44;1766651;81;21500;-70
2023/04/05 09:07:16;;;;;;;2.40;1.60;;;;;;;5.26;100.00;100027.76;1766263;81;21514;-68
2023/04/05 09:09:48;;;;;;;2.55;1.55;;;;;;;5.26;100.00;100032.34;1766466;81;21835;-67
2023/04/05 09:12:17;;;;;;;2.17;1.55;;;;;;;5.23;100.00;100030.81;1766003;81;21035;-67
2023/04/05 09:14:47;;;;;;;2.20;1.47;;;;;;;5.23;100.00;100021.31;1741266;81;21091;-66
2023/04/05 09:17:17;;;;;;;2.62;1.70;;;;;;;5.24;100.00;100021.65;1767046;81;21036;-66
2023/04/05 09:19:49;;;;;;;2.85;1.50;;;;;;;5.28;100.00;100023.00;1766227;81;21074;-66
2023/04/05 09:22:20;;;;;;;1.77;1.50;;;;;;;5.31;100.00;100024.52;1766198;81;21036;-66
2023/04/05 09:24:49;;;;;;;2.70;1.62;;;;;;;5.32;100.00;100020.27;1767026;81;21008;-66
2023/04/05 09:27:20;;;;;;;4.15;1.75;;;;;;;5.32;100.00;100020.27;1766553;81;21008;-66
2023/04/05 09:29:53;;;;;;;2.40;1.70;;;;;;;5.33;100.00;100021.97;1766300;81;21035;-66
2023/04/05 09:32:26;;;;;;;2.00;1.50;;;;;;;5.34;100.00;100022.31;1766577;81;21046;-64
2023/04/05 09:35:00;;;;;;;2.70;1.87;;;;;;;5.36;100.00;100013.47;1773929;81;21087;-65
2023/04/05 09:37:31;;;;;;;2.90;2.00;;;;;;;5.37;100.00;100007.02;1776938;80;21511;-64
2023/04/05 09:40:03;;;;;;;3.92;2.15;;;;;;;5.37;100.00;100017.89;1768643;81;21004;-65
2023/04/05 09:42:44;;;;;;;3.42;2.27;;;;;;;5.36;100.00;100018.91;1766515;81;21404;-65
2023/04/05 09:45:17;;;;;;;3.08;2.12;;;;;;;5.36;100.00;100018.91;1765634;81;21065;-66
2023/04/05 09:47:58;;;;;;;3.08;2.00;;;;;;;5.35;100.00;100015.85;1762333;81;21080;-65
2023/04/05 09:50:28;;;;;;;3.60;2.37;;;;;;;5.36;100.00;100016.19;1766311;81;21027;-65
2023/04/05 09:53:14;;;;;;;4.08;2.10;;;;;;;5.36;100.00;100022.13;1753791;81;21007;-66
2023/04/05 09:55:42;;;;;;;2.58;2.10;;;;;;;5.38;100.00;100016.02;1743965;82;21046;-65
2023/04/05 09:58:20;;;;;;;5.60;2.58;;;;;;;5.37;100.00;100009.73;1743576;82;21018;-66
2023/04/05 10:00:53;;;;;;;5.53;2.37;;;;;;;5.37;100.00;100018.39;1743712;81;21432;-67
2023/04/05 10:03:26;;;;;;;3.47;2.08;;;;;;;5.38;100.00;100018.73;1708960;83;21081;-67
2023/04/05 10:05:55;;;;;;;2.98;2.27;;;;;;;5.42;100.00;100022.80;1711363;83;21100;-65
2023/04/05 10:08:25;;;;;;;3.33;2.00;;;;;;;5.44;100.00;100015.32;1711437;84;21484;-70
2023/04/05 10:10:55;;;;;;;3.27;2.27;;;;;;;5.47;100.00;100016.84;1711380;84;21535;-71
2023/04/05 10:13:24;;;;;;;3.75;2.20;;;;;;;5.47;100.00;100008.17;1711494;83;21085;-75
2023/04/05 10:15:54;;;;;;;3.35;1.80;;;;;;;5.55;100.00;100007.30;1638591;87;21134;-74
2023/04/05 10:18:27;;;;;;;4.25;2.02;;;;;;;5.59;100.00;100007.29;1624793;88;21127;-74
2023/04/05 10:20:58;;;;;;;5.70;2.52;;;;;;;5.57;100.00;100013.41;1638698;87;21144;-73
2023/04/05 10:23:30;;;;;;;3.83;2.27;;;;;;;5.55;100.00;100004.59;1604185;88;21126;-73
2023/04/05 10:26:07;;;;;;;3.35;2.62;;;;;;;5.55;100.00;100006.79;1638758;87;21074;-72
2023/04/05 10:28:36;;;;;;;;;;;;;;;5.55;100.00;100004.08;1627491;88;21083;-69
2023/04/05 10:31:25;;;;;;;4.65;2.47;;;;;;;5.57;100.00;100007.98;1624843;88;20242;-71
2023/04/05 10:34:05;;;;;;;3.65;2.30;;;;;;;5.58;100.00;99998.80;1634933;86;21059;-73
2023/04/05 10:37:00;;;;;;;4.37;2.52;;;;;;;5.61;100.00;100005.24;1624736;88;21602;-71
2023/04/05 10:39:41;;;;;;;4.58;2.40;;;;;;;5.62;100.00;100007.78;1577385;88;21524;-73
2023/04/05 10:42:26;;;;;;;7.67;2.75;;;;;;;5.60;100.00;100004.91;1622254;88;21499;-73
2023/04/05 10:45:02;;;;;;;4.30;2.50;;;;;;;5.59;100.00;100005.93;1616187;88;21063;-73
2023/04/05 10:47:34;;;;;;;4.80;2.90;;;;;;;5.61;100.00;100002.52;1602018;88;21114;-73
2023/04/05 10:50:04;;;;;;;5.00;2.95;;;;;;;5.62;100.00;100002.35;1601749;88;21067;-72
2023/04/05 10:52:34;;;;;;;5.25;2.87;;;;;;;5.63;100.00;99996.41;1612864;87;21178;-70
2023/04/05 10:55:04;;;;;;;3.95;2.42;;;;;;;5.67;100.00;99997.23;1650955;86;21232;-70
2023/04/05 10:57:35;;;;;;;8.93;3.00;;;;;;;5.71;100.00;100005.88;1674030;84;21056;-71
2023/04/05 11:00:06;;;;;;;5.72;2.87;;;;;;;5.75;100.00;100004.51;1682763;83;21115;-70
2023/04/05 11:02:37;;;;;;;4.30;3.00;;;;;;;5.77;100.00;99999.73;1701231;83;21043;-70
2023/04/05 11:05:10;;;;;;;5.10;3.25;;;;;;;5.78;100.00;100008.23;1700414;84;21023;-72
2023/04/05 11:07:43;;;;;;;4.78;3.20;;;;;;;5.81;100.00;100005.67;1678292;84;21051;-72
2023/04/05 11:10:17;;;;;;;5.33;3.35;;;;;;;5.83;100.00;100009.06;1700173;83;21097;-73
2023/04/05 11:12:56;;;;;;;4.37;3.30;;;;;;;5.84;100.00;100004.81;1648859;86;21479;-72
2023/04/05 11:15:30;;;;;;;3.87;2.80;;;;;;;5.86;100.00;100004.66;1649224;86;21080;-71
2023/04/05 11:18:13;;;;;;;4.85;3.37;;;;;;;5.91;100.00;100003.14;1594994;89;21047;-69
2023/04/05 11:20:54;;;;;;;6.08;3.62;;;;;;;5.97;100.00;100009.73;1596745;90;21115;-72
2023/04/05 11:23:24;;;;;;;5.37;3.35;;;;;;;6.00;100.00;100017.54;1596788;88;21491;-71
2023/04/05 11:26:05;;;;;;;4.65;3.25;;;;;;;6.01;100.00;100010.56;1597335;89;21118;-70
2023/04/05 11:28:39;;;;;;;4.50;2.87;;;;;;;6.02;100.00;100007.33;1600316;90;21114;-70
2023/04/05 11:31:16;;;;;;;5.15;2.95;;;;;;;6.07;100.00;100016.31;1629729;87;21101;-72
2023/04/05 11:33:58;;;;;;;6.45;3.37;;;;;;;6.09;100.00;100007.47;1651649;85;21067;-71
2023/04/05 11:36:44;;;;;;;4.92;3.05;;;;;;;6.09;100.00;99998.80;1621778;88;21083;-71
2023/04/05 11:39:22;;;;;;;5.90;3.67;;;;;;;6.10;100.00;100010.00;1652208;87;21646;-70
2023/04/05 11:42:03;;;;;;;7.10;4.00;;;;;;;6.13;100.00;99997.92;1663139;84;21499;-68
2023/04/05 11:44:47;;;;;;;6.87;3.60;;;;;;;6.18;100.00;99999.59;1706411;84;21060;-72
2023/04/05 11:47:20;;;;;;;5.47;3.50;;;;;;;6.24;100.00;99992.92;1706406;84;21467;-76
2023/04/05 11:49:50;;;;;;;8.25;4.25;;;;;;;6.28;100.00;100000.20;1706081;84;21732;-72